Time;durP1;ratioP1;P1;durP2;ratioP2;P2;SDS_P1;SDS_P2;PMS_P1;PMS_P2;Temp;Humidity;BMP_temperature;BMP_pressure;BME280_temperature;BME280_humidity;BME280_pressure;Samples;Min_cycle;Max_cycle;Signal;HPM_P1;HPM_P2
2020/12/09 00:00:29;;;;;;;193.62;80.53;;;;;;;-1.60;85.80;97662.30;1816767;79;20904;-79
2020/12/09 00:02:56;;;;;;;182.65;73.60;;;;;;;-1.62;85.75;97659.04;1816758;78;21098;-79
2020/12/09 00:05:23;;;;;;;176.65;80.30;;;;;;;-1.61;85.81;97663.33;1785122;79;21143;-79
2020/12/09 00:07:51;;;;;;;164.13;71.55;;;;;;;-1.60;85.97;97666.28;1816653;79;21147;-79
2020/12/09 00:10:19;;;;;;;161.85;72.15;;;;;;;-1.58;85.93;97659.42;1816636;79;21118;-79
2020/12/09 00:12:44;;;;;;;148.82;69.95;;;;;;;-1.62;85.62;97661.70;1816516;78;21490;-78
2020/12/09 00:15:10;;;;;;;142.45;69.27;;;;;;;-1.61;85.82;97670.48;1816820;79;20976;-79
2020/12/09 00:17:36;;;;;;;146.00;65.83;;;;;;;-1.66;85.52;97673.75;1816665;79;21095;-79
2020/12/09 00:20:04;;;;;;;133.63;64.67;;;;;;;-1.73;85.39;97686.24;1816731;78;22237;-79
2020/12/09 00:22:30;;;;;;;139.00;69.62;;;;;;;-1.78;85.59;97684.23;1816940;79;21277;-79
2020/12/09 00:24:56;;;;;;;141.05;69.62;;;;;;;-1.79;85.53;97689.24;1816722;79;20889;-79
2020/12/09 00:27:23;;;;;;;152.35;73.07;;;;;;;-1.82;85.35;97684.84;1816777;78;21562;-79
2020/12/09 00:29:49;;;;;;;141.07;70.70;;;;;;;-1.87;85.50;97679.36;1785475;79;21119;-77
2020/12/09 00:32:19;;;;;;;146.70;70.40;;;;;;;-1.85;85.53;97685.27;1816714;78;22039;-78
2020/12/09 00:34:45;;;;;;;137.85;63.23;;;;;;;-1.88;85.55;97689.65;1816508;79;21697;-79
2020/12/09 00:37:11;;;;;;;139.65;64.75;;;;;;;-1.87;85.53;97690.80;1816630;79;21135;-78
2020/12/09 00:39:37;;;;;;;136.18;64.47;;;;;;;-1.85;85.71;97687.92;1816494;79;21027;-78
2020/12/09 00:42:03;;;;;;;143.62;69.05;;;;;;;-1.84;85.62;97689.55;1816864;78;20900;-79
2020/12/09 00:44:28;;;;;;;133.78;67.03;;;;;;;-1.85;85.45;97687.41;1816761;79;21343;-78
2020/12/09 00:46:54;;;;;;;121.55;57.98;;;;;;;-1.94;84.94;97687.33;1816826;79;20979;-80
2020/12/09 00:49:20;;;;;;;130.80;65.17;;;;;;;-1.97;85.27;97688.24;1816790;78;20936;-78
2020/12/09 00:51:46;;;;;;;135.03;64.92;;;;;;;-1.97;85.32;97690.90;1816775;78;20928;-79
2020/12/09 00:54:12;;;;;;;143.52;63.95;;;;;;;-1.95;85.41;97688.88;1816828;78;20952;-78
2020/12/09 00:56:43;;;;;;;129.38;63.42;;;;;;;-1.99;85.22;97689.78;1816786;79;21397;-78
2020/12/09 00:59:10;;;;;;;122.87;62.33;;;;;;;-1.99;85.29;97693.77;1816810;79;21435;-78
2020/12/09 01:01:35;;;;;;;124.15;61.92;;;;;;;-1.98;85.39;97694.06;1816886;78;21150;-80
2020/12/09 01:04:05;;;;;;;133.97;62.30;;;;;;;-1.97;85.30;97700.19;1816952;79;20905;-78
2020/12/09 01:06:33;;;;;;;130.50;58.15;;;;;;;-1.97;85.32;97695.70;1816875;79;21099;-78
2020/12/09 01:09:07;;;;;;;135.37;60.08;;;;;;;-2.00;85.12;97700.92;1816829;79;21158;-79
2020/12/09 01:11:33;;;;;;;132.30;60.45;;;;;;;-2.02;85.17;97704.30;1816854;78;21094;-77
2020/12/09 01:13:59;;;;;;;125.30;61.40;;;;;;;-2.04;85.08;97708.20;1816815;78;21019;-77
2020/12/09 01:16:25;;;;;;;120.90;59.05;;;;;;;-2.04;85.16;97710.85;1816762;79;20905;-78
2020/12/09 01:18:51;;;;;;;121.15;57.10;;;;;;;-2.02;85.25;97703.48;1816825;78;20993;-79
2020/12/09 01:21:30;;;;;;;122.82;55.67;;;;;;;-2.04;85.08;97705.03;1816806;78;21357;-78
2020/12/09 01:23:55;;;;;;;120.13;53.20;;;;;;;-2.10;84.76;97696.55;1816355;79;21538;-79
2020/12/09 01:26:22;;;;;;;128.57;58.83;;;;;;;-2.18;84.85;97700.75;1816839;78;20861;-79
2020/12/09 01:28:51;;;;;;;126.75;60.48;;;;;;;-2.24;85.03;97706.06;1785204;79;21177;-78
2020/12/09 01:31:22;;;;;;;132.30;62.25;;;;;;;-2.23;85.55;97705.84;1816423;79;21110;-79
2020/12/09 01:33:48;;;;;;;135.48;61.53;;;;;;;-2.18;85.63;97703.41;1816836;79;21765;-78
2020/12/09 01:36:23;;;;;;;134.78;60.45;;;;;;;-2.14;85.99;97711.25;1816718;78;20885;-78
2020/12/09 01:38:50;;;;;;;143.60;60.95;;;;;;;-2.11;86.30;97703.40;1814067;79;21023;-79
2020/12/09 01:41:19;;;;;;;158.10;67.97;;;;;;;-2.13;86.77;97697.48;1816776;78;21125;-78
2020/12/09 01:43:47;;;;;;;154.53;70.22;;;;;;;-2.14;86.36;97691.84;1816811;79;21205;-79
2020/12/09 01:46:18;;;;;;;164.45;71.62;;;;;;;-2.13;86.33;97689.52;1816777;79;21181;-79
2020/12/09 01:48:45;;;;;;;140.68;66.65;;;;;;;-2.12;86.28;97687.98;1816851;79;21146;-80
2020/12/09 01:51:13;;;;;;;150.97;66.05;;;;;;;-2.12;86.15;97684.52;1785241;79;21059;-78
2020/12/09 01:53:40;;;;;;;148.13;68.17;;;;;;;-2.09;86.28;97680.11;1816693;78;21102;-80
2020/12/09 01:56:08;;;;;;;107.43;50.33;;;;;;;-2.06;86.03;97681.01;1816798;79;21095;-80
2020/12/09 01:58:33;;;;;;;101.50;47.30;;;;;;;-2.04;86.58;97681.12;1816541;78;21134;-78
2020/12/09 02:00:59;;;;;;;109.78;49.88;;;;;;;-2.01;86.32;97681.22;1816674;79;20909;-80
2020/12/09 02:03:25;;;;;;;104.92;51.95;;;;;;;-2.06;86.77;97685.80;1816842;79;21295;-80
2020/12/09 02:05:51;;;;;;;107.78;51.02;;;;;;;-1.97;86.67;97689.57;1785284;79;20983;-79
2020/12/09 02:08:18;;;;;;;106.85;47.88;;;;;;;-1.90;86.69;97689.05;1816874;78;21201;-79
2020/12/09 02:10:43;;;;;;;119.08;54.10;;;;;;;-1.91;86.61;97690.89;1816734;79;21142;-80
2020/12/09 02:13:09;;;;;;;124.58;58.20;;;;;;;-1.94;86.76;97686.52;1816752;78;20909;-80
2020/12/09 02:15:35;;;;;;;124.42;56.63;;;;;;;-1.94;86.56;97688.66;1816796;78;20896;-80
2020/12/09 02:18:03;;;;;;;119.08;50.33;;;;;;;-1.90;86.64;97685.06;1816843;79;21644;-80
2020/12/09 02:20:29;;;;;;;151.68;68.60;;;;;;;-1.96;86.46;97685.92;1816882;79;21473;-80
2020/12/09 02:22:55;;;;;;;132.55;59.35;;;;;;;-2.08;86.47;97686.53;1816927;78;21193;-79
2020/12/09 02:25:21;;;;;;;125.85;60.17;;;;;;;-2.12;86.52;97687.98;1816829;78;21023;-80
2020/12/09 02:27:47;;;;;;;117.62;54.15;;;;;;;-2.27;86.46;97687.39;1816784;78;21134;-78
2020/12/09 02:30:13;;;;;;;110.60;53.28;;;;;;;-2.35;86.73;97691.06;1816823;78;20888;-79
2020/12/09 02:32:39;;;;;;;108.57;47.98;;;;;;;-2.38;86.73;97697.30;1816910;79;20948;-79
2020/12/09 02:35:05;;;;;;;96.75;44.13;;;;;;;-2.41;86.91;97699.02;1816746;78;21116;-79
2020/12/09 02:37:32;;;;;;;119.37;58.52;;;;;;;-2.48;86.97;97699.53;1816691;78;21178;-78
2020/12/09 02:39:59;;;;;;;105.52;50.52;;;;;;;-2.59;86.98;97700.45;1816772;78;21466;-80
2020/12/09 02:42:25;;;;;;;92.02;47.00;;;;;;;-2.62;87.07;97697.41;1816815;79;21198;-80
2020/12/09 02:44:51;;;;;;;101.30;50.98;;;;;;;-2.64;87.14;97691.49;1816765;78;20908;-78
2020/12/09 02:47:18;;;;;;;107.40;50.55;;;;;;;-2.73;87.10;97686.89;1816920;79;21378;-79
2020/12/09 02:49:44;;;;;;;105.12;52.05;;;;;;;-2.79;87.08;97679.74;1816718;79;21519;-81
2020/12/09 02:52:14;;;;;;;112.85;49.25;;;;;;;-2.81;87.58;97674.34;1816757;79;20900;-80
2020/12/09 02:54:40;;;;;;;93.05;43.15;;;;;;;-2.73;87.35;97683.42;1816824;78;21134;-77
2020/12/09 02:57:06;;;;;;;103.55;46.37;;;;;;;-2.81;87.14;97683.63;1742924;79;20991;-78
2020/12/09 02:59:32;;;;;;;88.85;41.25;;;;;;;-2.86;87.06;97690.33;1816708;79;21232;-78
2020/12/09 03:01:58;;;;;;;99.97;46.83;;;;;;;-2.85;87.29;97693.80;1816273;79;21522;-78
2020/12/09 03:04:23;;;;;;;101.12;48.40;;;;;;;-2.96;87.06;97693.89;1816770;78;20919;-78
2020/12/09 03:06:52;;;;;;;95.32;44.25;;;;;;;-3.03;88.28;97691.73;1816801;79;21553;-79
2020/12/09 03:09:18;;;;;;;114.55;52.13;;;;;;;-2.98;87.75;97682.68;1816903;79;21079;-78
2020/12/09 03:11:44;;;;;;;107.30;48.98;;;;;;;-2.88;87.89;97676.98;1816769;79;21324;-79
2020/12/09 03:14:10;;;;;;;116.20;51.53;;;;;;;-2.80;87.89;97673.32;1816669;78;20877;-78
2020/12/09 03:16:36;;;;;;;104.97;46.92;;;;;;;-2.70;87.83;97678.52;1816751;79;20916;-79
2020/12/09 03:19:02;;;;;;;103.10;48.02;;;;;;;-2.64;87.45;97680.37;1816814;79;20936;-79
2020/12/09 03:21:30;;;;;;;89.22;41.60;;;;;;;-2.68;87.05;97692.39;1816734;79;20993;-77
2020/12/09 03:23:56;;;;;;;68.40;28.98;;;;;;;-2.71;86.71;97690.66;1785867;79;21251;-79
2020/12/09 03:26:22;;;;;;;102.12;45.00;;;;;;;-2.80;86.72;97693.20;1816776;79;20991;-78
2020/12/09 03:28:48;;;;;;;98.42;48.05;;;;;;;-2.98;86.54;97695.12;1816882;78;20940;-79
2020/12/09 03:31:13;;;;;;;90.60;40.98;;;;;;;-3.00;86.86;97693.16;1816804;79;21039;-79
2020/12/09 03:33:41;;;;;;;81.72;37.48;;;;;;;-3.02;86.79;97693.88;1816837;79;20909;-78
2020/12/09 03:36:07;;;;;;;79.77;36.88;;;;;;;-3.15;86.80;97682.24;1816732;79;21167;-79
2020/12/09 03:38:33;;;;;;;84.20;42.80;;;;;;;-3.24;86.95;97680.80;1816666;78;21059;-78
2020/12/09 03:40:59;;;;;;;83.72;41.95;;;;;;;-3.31;87.03;97675.16;1816754;78;20900;-79
2020/12/09 03:43:25;;;;;;;80.30;41.98;;;;;;;-3.29;87.05;97677.09;1816772;78;21629;-79
2020/12/09 03:45:51;;;;;;;90.97;41.58;;;;;;;-3.29;87.59;97683.22;1789641;79;21091;-79
2020/12/09 03:48:17;;;;;;;84.52;39.53;;;;;;;-3.31;87.44;97669.86;1816780;78;21266;-78
2020/12/09 03:50:43;;;;;;;93.90;42.67;;;;;;;-3.23;87.17;97682.42;1816571;79;21007;-77
2020/12/09 03:53:09;;;;;;;90.28;42.05;;;;;;;-3.26;87.28;97686.78;1816757;78;21380;-79
2020/12/09 03:55:34;;;;;;;91.47;43.15;;;;;;;-3.23;87.48;97689.56;1816735;78;21040;-77
2020/12/09 03:58:00;;;;;;;99.07;46.65;;;;;;;-3.21;87.62;97683.55;1816771;78;20925;-78
2020/12/09 04:00:27;;;;;;;114.08;55.10;;;;;;;-3.13;87.43;97684.69;1816687;79;21106;-78
2020/12/09 04:02:53;;;;;;;103.78;50.38;;;;;;;-3.13;87.48;97681.52;1816720;79;21611;-77
2020/12/09 04:05:19;;;;;;;100.82;44.25;;;;;;;-3.09;87.43;97679.78;1816697;78;20944;-79
2020/12/09 04:07:45;;;;;;;76.75;36.17;;;;;;;-3.08;87.37;97680.91;1816730;79;21070;-78
2020/12/09 04:10:10;;;;;;;96.65;43.25;;;;;;;-3.05;87.16;97680.52;1816748;78;20936;-77
2020/12/09 04:12:36;;;;;;;111.15;51.20;;;;;;;-3.13;86.97;97686.02;1816713;79;21361;-79
2020/12/09 04:15:03;;;;;;;125.47;50.55;;;;;;;-3.17;86.98;97674.16;1816695;78;20932;-78
2020/12/09 04:17:28;;;;;;;105.65;48.40;;;;;;;-3.14;87.10;97684.38;1816586;79;21134;-79
2020/12/09 04:19:54;;;;;;;76.28;38.53;;;;;;;-3.15;87.06;97682.75;1816910;79;20904;-79
2020/12/09 04:22:21;;;;;;;80.17;38.20;;;;;;;-3.12;87.38;97682.34;1816866;78;20969;-79
2020/12/09 04:24:46;;;;;;;87.37;40.83;;;;;;;-3.07;87.28;97680.42;1816887;78;21562;-79
2020/12/09 04:27:12;;;;;;;80.32;39.30;;;;;;;-3.07;87.12;97679.91;1816832;78;20920;-79
2020/12/09 04:29:38;;;;;;;88.50;41.25;;;;;;;-3.09;87.91;97679.78;1816891;78;21522;-79
2020/12/09 04:32:05;;;;;;;93.60;44.03;;;;;;;-3.04;87.99;97680.02;1816919;79;20928;-77
2020/12/09 04:34:32;;;;;;;119.45;54.05;;;;;;;-2.99;88.34;97681.53;1816967;78;21016;-79
2020/12/09 04:36:58;;;;;;;128.02;59.60;;;;;;;-2.97;87.59;97679.01;1816864;78;21948;-79
2020/12/09 04:39:24;;;;;;;131.70;53.98;;;;;;;-3.01;87.22;97677.77;1816810;79;20999;-79
2020/12/09 04:41:49;;;;;;;123.45;51.98;;;;;;;-3.04;87.09;97683.98;1816870;79;20991;-78
2020/12/09 04:44:17;;;;;;;102.95;47.40;;;;;;;-3.04;86.99;97687.97;1785648;79;20931;-79
2020/12/09 04:46:46;;;;;;;123.38;56.40;;;;;;;-3.01;87.10;97680.92;1816874;79;21186;-81
2020/12/09 04:49:14;;;;;;;93.97;40.78;;;;;;;-3.05;86.93;97678.38;1816578;79;21156;-79
2020/12/09 04:52:10;;;;;;;120.92;56.90;;;;;;;-3.08;86.96;97683.55;1816957;79;21471;-80
2020/12/09 04:54:43;;;;;;;133.50;55.12;;;;;;;-3.21;87.11;97683.55;1806490;79;21043;-80
2020/12/09 04:57:23;;;;;;;103.25;52.95;;;;;;;-3.17;87.74;97672.84;1816827;79;21562;-79
2020/12/09 05:00:01;;;;;;;107.72;51.77;;;;;;;-3.14;87.23;97669.30;1788833;79;21083;-77
2020/12/09 05:02:49;;;;;;;107.95;46.42;;;;;;;-3.20;87.75;97671.41;1816849;79;21748;-78
2020/12/09 05:05:17;;;;;;;108.77;44.37;;;;;;;-3.15;87.37;97672.15;1817028;78;21094;-77
2020/12/09 05:07:49;;;;;;;104.50;51.18;;;;;;;-3.28;87.03;97678.73;1816811;79;21130;-79
2020/12/09 05:10:23;;;;;;;134.57;61.98;;;;;;;-3.33;87.56;97671.39;1816546;79;21079;-78
2020/12/09 05:12:56;;;;;;;132.27;55.30;;;;;;;-3.28;87.22;97672.92;1816827;79;21107;-80
2020/12/09 05:15:23;;;;;;;144.50;62.65;;;;;;;-3.29;87.05;97672.61;1816506;79;21539;-81
2020/12/09 05:18:07;;;;;;;111.45;46.83;;;;;;;-3.24;87.24;97678.14;1816664;79;21139;-81
2020/12/09 05:20:36;;;;;;;96.47;41.90;;;;;;;-3.25;87.14;97679.64;1786455;79;21166;-78
2020/12/09 05:23:03;;;;;;;125.02;60.43;;;;;;;-3.24;87.17;97674.68;1816423;79;21355;-79
2020/12/09 05:25:33;;;;;;;89.47;43.15;;;;;;;-3.18;87.27;97671.20;1816862;78;21119;-80
2020/12/09 05:27:59;;;;;;;97.25;45.20;;;;;;;-3.15;87.40;97667.66;1785799;79;21619;-80
2020/12/09 05:30:51;;;;;;;101.80;45.50;;;;;;;-3.05;87.82;97672.57;1816671;79;20901;-78
2020/12/09 05:33:20;;;;;;;107.52;55.00;;;;;;;-2.97;87.74;97667.08;1816863;78;21126;-77
2020/12/09 05:36:00;;;;;;;107.87;50.05;;;;;;;-2.93;87.33;97668.80;1816511;78;21599;-80
2020/12/09 05:38:29;;;;;;;121.95;59.73;;;;;;;-2.93;87.15;97667.48;1816776;78;21201;-77
2020/12/09 05:41:01;;;;;;;151.02;83.15;;;;;;;-2.93;87.42;97670.13;1816579;79;21087;-78
2020/12/09 05:43:25;;;;;;;103.67;54.38;;;;;;;-2.91;87.26;97668.08;1814844;79;21095;-78
2020/12/09 05:45:51;;;;;;;117.15;56.98;;;;;;;-2.97;87.22;97665.75;1816801;78;21091;-78
2020/12/09 05:48:23;;;;;;;100.02;47.33;;;;;;;-2.91;87.48;97667.57;1816716;78;20987;-79
2020/12/09 05:50:59;;;;;;;123.33;54.38;;;;;;;-2.92;88.00;97669.92;1816776;79;21487;-78
2020/12/09 05:53:33;;;;;;;115.45;51.23;;;;;;;-2.86;87.42;97666.47;1785316;79;21337;-77
2020/12/09 05:56:13;;;;;;;109.50;48.35;;;;;;;-2.74;87.74;97662.69;1816799;78;21464;-79
2020/12/09 05:58:47;;;;;;;141.32;56.30;;;;;;;-2.70;87.43;97669.75;1816714;79;21031;-79
2020/12/09 06:01:19;;;;;;;151.90;63.13;;;;;;;-2.67;87.21;97662.70;1815802;79;21059;-80
2020/12/09 06:03:53;;;;;;;205.72;89.92;;;;;;;-2.76;87.00;97665.25;1816794;79;21115;-80
2020/12/09 06:06:28;;;;;;;180.95;79.45;;;;;;;-2.84;87.09;97666.27;1816823;79;21436;-80
2020/12/09 06:08:57;;;;;;;179.03;71.55;;;;;;;-2.79;87.52;97674.95;1816332;78;21043;-79
2020/12/09 06:11:28;;;;;;;137.92;54.75;;;;;;;-2.73;87.24;97673.63;1816067;79;21636;-80
2020/12/09 06:13:54;;;;;;;109.27;48.25;;;;;;;-2.77;86.95;97680.34;1816852;78;21538;-79
2020/12/09 06:16:22;;;;;;;122.65;56.28;;;;;;;-2.88;86.96;97684.94;1816775;78;21043;-78
2020/12/09 06:18:53;;;;;;;116.77;52.75;;;;;;;-2.92;87.30;97683.69;1815602;79;21094;-80
2020/12/09 06:21:20;;;;;;;91.30;42.80;;;;;;;-2.94;87.06;97691.03;1816839;79;21024;-78
2020/12/09 06:23:53;;;;;;;137.40;61.18;;;;;;;-2.91;87.28;97691.44;1816727;79;21520;-79
2020/12/09 06:26:22;;;;;;;148.07;66.62;;;;;;;-2.89;87.31;97697.38;1816749;79;21051;-80
2020/12/09 06:28:49;;;;;;;133.57;54.98;;;;;;;-2.88;87.64;97699.01;1816530;79;21071;-79
2020/12/09 06:31:17;;;;;;;105.30;43.10;;;;;;;-2.91;88.17;97698.06;1814666;79;21358;-78
2020/12/09 06:33:57;;;;;;;99.65;43.83;;;;;;;-2.85;88.18;97702.58;1816519;78;21138;-78
2020/12/09 06:36:30;;;;;;;94.70;41.45;;;;;;;-2.79;87.56;97711.56;1815452;79;21059;-77
2020/12/09 06:39:18;;;;;;;78.33;34.25;;;;;;;-2.78;87.91;97706.56;1816732;78;21111;-79
2020/12/09 06:41:58;;;;;;;87.10;37.38;;;;;;;-2.80;87.77;97709.13;1816543;79;21602;-80
2020/12/09 06:44:31;;;;;;;98.65;39.67;;;;;;;-2.79;88.06;97712.08;1816813;79;21101;-77
2020/12/09 06:46:58;;;;;;;91.42;40.60;;;;;;;-2.70;87.81;97716.98;1816715;79;21110;-77
2020/12/09 06:49:33;;;;;;;101.62;42.40;;;;;;;-2.66;87.49;97715.55;1816642;79;21138;-79
2020/12/09 06:52:13;;;;;;;104.45;45.23;;;;;;;-2.70;87.54;97714.33;1816650;79;21099;-80
2020/12/09 06:54:48;;;;;;;103.27;44.58;;;;;;;-2.70;87.80;97718.31;1816650;79;21031;-79
2020/12/09 06:57:40;;;;;;;104.75;46.85;;;;;;;-2.69;87.87;97721.27;1816761;78;21209;-78
2020/12/09 07:00:18;;;;;;;94.50;39.80;;;;;;;-2.69;87.38;97722.59;1820320;76;21618;-79
2020/12/09 07:02:47;;;;;;;85.10;39.53;;;;;;;-2.67;87.13;97719.73;1801452;78;21425;-77
2020/12/09 07:05:16;;;;;;;94.42;45.63;;;;;;;-2.75;87.49;97728.70;1801525;78;21037;-79
2020/12/09 07:07:52;;;;;;;;;;;;;;;-2.75;87.49;97728.70;1803125;78;21142;-78
2020/12/09 07:10:23;;;;;;;126.78;60.95;;;;;;;-2.74;87.93;97733.48;1801480;78;21973;-77
2020/12/09 07:13:07;;;;;;;108.07;49.48;;;;;;;-2.67;87.74;97725.03;1801175;78;21658;-78
2020/12/09 07:15:35;;;;;;;91.28;47.30;;;;;;;-2.57;87.76;97728.09;1782149;79;21151;-80
2020/12/09 07:18:01;;;;;;;75.30;35.83;;;;;;;-2.52;87.56;97727.50;1754211;80;21152;-78
2020/12/09 07:20:28;;;;;;;61.55;30.77;;;;;;;-2.48;87.32;97728.20;1782091;79;21203;-78
2020/12/09 07:22:53;;;;;;;65.65;29.30;;;;;;;-2.47;87.25;97727.21;1781817;80;21158;-80
2020/12/09 07:25:20;;;;;;;71.60;28.92;;;;;;;-2.41;87.78;97729.03;1781742;79;21044;-79
2020/12/09 07:27:48;;;;;;;93.95;38.80;;;;;;;-2.31;87.61;97733.45;1781953;80;21151;-78
2020/12/09 07:30:15;;;;;;;371.70;130.50;;;;;;;-2.28;87.18;97732.20;1781949;79;21055;-79
2020/12/09 07:32:42;;;;;;;225.25;100.53;;;;;;;-2.29;87.15;97741.20;1782030;80;21040;-80
2020/12/09 07:35:11;;;;;;;188.62;90.15;;;;;;;-2.27;87.20;97739.14;1782035;79;23386;-80
2020/12/09 07:37:42;;;;;;;173.47;75.57;;;;;;;-2.24;87.10;97747.20;1782008;80;21218;-78
2020/12/09 07:40:21;;;;;;;136.05;59.75;;;;;;;-2.20;86.84;97743.95;1781732;79;21131;-77
2020/12/09 07:42:46;;;;;;;172.55;73.75;;;;;;;-2.23;86.54;97753.63;1781538;80;21619;-80
2020/12/09 07:45:17;;;;;;;133.97;57.48;;;;;;;-2.22;86.71;97753.96;1782072;79;21143;-80
2020/12/09 07:47:44;;;;;;;184.22;77.30;;;;;;;-2.14;86.54;97748.41;1782070;80;21257;-80
2020/12/09 07:50:10;;;;;;;116.20;46.80;;;;;;;-2.08;86.90;97758.73;1782011;79;21571;-78
2020/12/09 07:52:38;;;;;;;203.65;76.28;;;;;;;-2.03;86.92;97763.75;1781845;80;21068;-79
2020/12/09 07:55:15;;;;;;;144.35;55.83;;;;;;;-1.95;86.73;97767.22;1782075;79;21004;-80
2020/12/09 07:57:41;;;;;;;129.25;55.67;;;;;;;-1.91;86.79;97764.44;1781962;80;21158;-80
2020/12/09 08:00:11;;;;;;;80.65;37.28;;;;;;;-1.86;86.60;97769.45;1753518;80;21958;-79
2020/12/09 08:02:41;;;;;;;69.42;32.73;;;;;;;-1.88;86.77;97762.69;1780019;80;21688;-80
2020/12/09 08:05:16;;;;;;;71.42;34.88;;;;;;;-1.85;86.48;97763.62;1781995;79;21115;-77
2020/12/09 08:07:57;;;;;;;55.73;28.35;;;;;;;-1.80;86.66;97762.48;1753740;80;21100;-79
2020/12/09 08:10:29;;;;;;;62.35;30.80;;;;;;;-1.78;86.68;97753.81;1753401;80;21603;-79
2020/12/09 08:13:24;;;;;;;57.53;27.65;;;;;;;-1.61;86.67;97756.33;1782069;80;21287;-79
2020/12/09 08:16:10;;;;;;;68.85;28.52;;;;;;;-1.49;86.63;97760.47;1782082;79;21559;-77
2020/12/09 08:18:39;;;;;;;71.05;35.65;;;;;;;-1.38;86.09;97762.98;1754950;80;21083;-77
2020/12/09 08:21:08;;;;;;;78.65;38.70;;;;;;;-1.31;86.15;97766.45;1782016;79;21064;-79
2020/12/09 08:23:48;;;;;;;74.55;33.90;;;;;;;-1.20;86.20;97769.28;1781027;80;21107;-78
2020/12/09 08:26:33;;;;;;;73.83;38.53;;;;;;;-1.11;86.02;97763.22;1753640;80;21275;-79
2020/12/09 08:28:59;;;;;;;51.80;26.80;;;;;;;-0.97;86.17;97762.63;1781914;80;21591;-79
2020/12/09 08:31:25;;;;;;;49.33;23.18;;;;;;;-0.82;86.12;97755.19;1781924;79;21056;-79
2020/12/09 08:33:53;;;;;;;42.95;21.60;;;;;;;-0.88;84.87;97761.34;1782042;80;21213;-79
2020/12/09 08:36:20;;;;;;;45.12;19.90;;;;;;;-0.87;84.84;97765.63;1781939;79;21159;-79
2020/12/09 08:38:59;;;;;;;52.85;28.02;;;;;;;-1.02;84.41;97771.25;1781926;80;21329;-79
2020/12/09 08:41:34;;;;;;;65.47;33.63;;;;;;;-1.00;84.72;97772.36;1781942;79;21036;-77
2020/12/09 08:44:02;;;;;;;46.40;22.70;;;;;;;-0.93;85.16;97777.15;1782004;80;21136;-78
2020/12/09 08:46:39;;;;;;;;;;;;;;;;;;;;;
2020/12/09 08:49:03;;;;;;;45.17;22.32;;;;;;;-0.92;85.31;97788.90;1778847;80;21036;-80
2020/12/09 08:51:36;;;;;;;47.15;22.75;;;;;;;-0.79;85.52;97782.69;1780482;79;21060;-80
2020/12/09 08:54:07;;;;;;;52.43;26.62;;;;;;;-0.72;85.34;97788.79;1781864;80;21194;-78
2020/12/09 08:56:40;;;;;;;51.13;24.43;;;;;;;-0.67;85.14;97780.99;1781244;80;21163;-79
2020/12/09 08:59:19;;;;;;;;;;;;;;;;;;;;;
2020/12/09 09:01:38;;;;;;;63.15;28.40;;;;;;;-0.72;84.70;97779.99;1750445;80;21056;-80
2020/12/09 09:04:10;;;;;;;57.10;27.58;;;;;;;-0.71;85.18;97780.29;1780894;80;21431;-80
2020/12/09 09:06:36;;;;;;;43.17;22.05;;;;;;;-0.69;85.34;97780.37;1781777;80;21060;-80
2020/12/09 09:09:12;;;;;;;53.90;24.15;;;;;;;-0.74;84.87;97780.21;1782257;80;21194;-79
2020/12/09 09:11:33;;;;;;;56.42;26.45;;;;;;;-0.71;84.92;97764.32;1779333;80;21071;-79
2020/12/09 09:13:59;;;;;;;73.97;32.40;;;;;;;-0.55;85.10;97773.65;1782089;80;21627;-79
2020/12/09 09:16:27;;;;;;;58.17;26.37;;;;;;;-0.48;85.13;97777.91;1782074;79;21854;-79
2020/12/09 09:18:55;;;;;;;48.58;25.48;;;;;;;-0.41;85.16;97776.53;1781218;80;21147;-79
2020/12/09 09:21:25;;;;;;;54.08;25.35;;;;;;;-0.41;84.50;97774.69;1781427;79;21127;-78
2020/12/09 09:23:58;;;;;;;46.58;24.67;;;;;;;-0.42;84.53;97779.72;1781451;80;21155;-78
2020/12/09 09:26:21;;;;;;;58.45;25.88;;;;;;;-0.36;84.79;97780.16;1780648;79;21139;-79
2020/12/09 09:28:50;;;;;;;53.52;25.55;;;;;;;-0.34;84.65;97777.31;1782201;80;21116;-79
2020/12/09 09:31:17;;;;;;;56.00;27.62;;;;;;;-0.33;84.50;97771.77;1781519;79;21044;-81
2020/12/09 09:33:45;;;;;;;62.03;28.42;;;;;;;-0.33;84.49;97770.95;1781906;80;21130;-78
2020/12/09 09:36:13;;;;;;;74.55;36.38;;;;;;;-0.27;84.58;97769.25;1781122;79;21527;-78
2020/12/09 09:41:22;;;;;;;67.08;34.50;;;;;;;-0.27;84.63;97762.08;1815560;76;23951;-78
2020/12/09 09:43:48;;;;;;;56.70;29.50;;;;;;;-0.32;84.66;97764.59;1785624;80;20928;-78
2020/12/09 09:46:22;;;;;;;90.90;51.53;;;;;;;-0.33;84.74;97769.09;1785489;79;21268;-79
2020/12/09 09:48:49;;;;;;;71.05;31.93;;;;;;;-0.27;85.10;97771.39;1785520;80;21019;-78
2020/12/09 09:51:14;;;;;;;65.35;29.95;;;;;;;-0.23;84.71;97769.13;1785403;79;21591;-79
2020/12/09 09:53:41;;;;;;;56.30;29.60;;;;;;;-0.18;84.60;97763.95;1785446;80;20904;-79
2020/12/09 09:56:10;;;;;;;66.72;32.13;;;;;;;-0.25;84.06;97764.55;1754897;80;21555;-79
2020/12/09 09:59:47;;;;;;;63.33;30.35;;;;;;;-0.09;84.74;97768.79;1785661;80;22145;-79
2020/12/09 10:02:15;;;;;;;61.17;29.47;;;;;;;0.06;84.99;97766.32;1785663;80;21145;-78
2020/12/09 10:21:08;;;;;;;76.00;35.23;;;;;;;0.24;84.56;97754.36;1785391;79;21169;-77
2020/12/09 10:23:34;;;;;;;108.00;49.23;;;;;;;0.31;84.33;97748.45;1785434;80;21011;-78
2020/12/09 10:26:04;;;;;;;76.72;35.05;;;;;;;0.38;84.39;97750.54;1785307;79;21424;-79
2020/12/09 10:28:31;;;;;;;58.90;26.90;;;;;;;0.40;84.16;97746.31;1785265;80;21106;-78
2020/12/09 10:31:00;;;;;;;62.38;28.65;;;;;;;0.42;83.96;97737.05;1785331;79;21106;-80
2020/12/09 10:33:28;;;;;;;55.98;26.93;;;;;;;0.42;83.78;97743.71;1754940;80;21122;-79
2020/12/09 10:35:54;;;;;;;53.15;26.15;;;;;;;0.26;83.41;97745.13;1784898;79;28548;-79
2020/12/09 10:38:20;;;;;;;53.25;25.60;;;;;;;0.37;83.93;97736.91;1785451;80;21027;-79
2020/12/09 10:40:48;;;;;;;61.58;29.23;;;;;;;0.52;84.29;97736.56;1785255;79;21258;-79
2020/12/09 10:43:16;;;;;;;67.55;35.70;;;;;;;0.61;84.24;97731.22;1784685;79;21590;-78
2020/12/09 10:45:43;;;;;;;57.45;31.17;;;;;;;0.61;83.66;97735.22;1785401;79;21170;-79
2020/12/09 10:48:10;;;;;;;54.70;28.55;;;;;;;0.66;83.97;97730.02;1785189;80;21241;-79
2020/12/09 10:50:38;;;;;;;58.95;29.27;;;;;;;0.61;82.90;97732.56;1785147;79;21043;-78
2020/12/09 10:53:04;;;;;;;59.30;30.12;;;;;;;0.59;83.27;97726.61;1784643;80;21559;-79
2020/12/09 10:55:31;;;;;;;56.60;29.92;;;;;;;0.58;83.54;97723.65;1784559;79;20911;-78
2020/12/09 10:57:58;;;;;;;54.80;27.02;;;;;;;0.56;83.62;97721.21;1784575;80;21153;-79
2020/12/09 11:00:24;;;;;;;55.17;28.05;;;;;;;0.55;83.71;97718.77;1784456;79;21146;-79
2020/12/09 11:02:50;;;;;;;67.30;33.18;;;;;;;0.61;83.60;97718.41;1754111;80;20920;-79
2020/12/09 11:05:18;;;;;;;72.80;37.20;;;;;;;0.72;83.78;97712.31;1784658;79;21357;-79
2020/12/09 11:07:44;;;;;;;69.07;34.10;;;;;;;0.72;83.78;97712.31;1784567;80;21676;-79
2020/12/09 11:10:09;;;;;;;66.02;34.25;;;;;;;0.75;83.78;97716.67;1784756;79;21030;-77
2020/12/09 11:12:35;;;;;;;136.68;62.15;;;;;;;0.82;84.07;97716.59;1784725;80;21081;-79
2020/12/09 11:15:02;;;;;;;74.47;35.43;;;;;;;0.82;83.93;97717.41;1784873;79;20935;-79
2020/12/09 11:17:32;;;;;;;60.00;32.70;;;;;;;0.81;83.90;97722.45;1784609;80;21924;-79
2020/12/09 11:19:58;;;;;;;69.50;31.35;;;;;;;0.78;83.93;97712.77;1783667;79;21047;-79
2020/12/09 11:22:26;;;;;;;61.15;29.35;;;;;;;0.81;83.60;97710.97;1754016;80;21101;-78
2020/12/09 11:24:51;;;;;;;64.65;29.45;;;;;;;0.77;83.28;97705.77;1784586;79;21142;-78
2020/12/09 11:27:17;;;;;;;87.80;41.58;;;;;;;0.82;83.56;97711.27;1784739;80;20916;-79
2020/12/09 11:29:44;;;;;;;75.47;32.98;;;;;;;0.82;83.78;97707.26;1784773;79;21186;-79
2020/12/09 11:32:10;;;;;;;68.85;33.88;;;;;;;0.88;83.47;97702.89;1784633;80;21101;-78
2020/12/09 11:34:37;;;;;;;56.68;29.87;;;;;;;0.75;83.77;97697.19;1784535;79;21039;-80
2020/12/09 11:37:03;;;;;;;55.40;29.10;;;;;;;0.71;84.12;97695.50;1784691;80;21586;-79
2020/12/09 11:39:29;;;;;;;58.87;23.80;;;;;;;0.62;83.72;97692.84;1784617;79;21235;-78
2020/12/09 11:41:59;;;;;;;46.28;22.22;;;;;;;0.53;83.41;97697.67;1784726;80;22001;-79
2020/12/09 11:44:25;;;;;;;51.80;24.07;;;;;;;0.44;84.03;97702.20;1784598;79;21059;-78